Maracas, Brazil
Current Conditions -  °F | °C
As of 5:00 AM on Wednesday 22 Oct 2014 (Local Time) from SBQV Reporting Station
Broken Clouds Broken Clouds  
Wind Chill: 63°   Ceiling: 1500
Heat Index: 63°   Visibility: 6mi
Dew Point: 63°   Wind: 8mph
Humidity: 100%   Direction: 110°ESE
Pressure: 30.09"   Gusts: NA
Location:  13.44°S, 40.43°W
Report Text: SBQV 220800Z 11007KT 9999 FEW008 BKN015 17/17 Q1019
Loading
Personal Weather Stations






























Interactive Weather Map
Tropical Storm Tracking
New forecast layout! Learn more

10-Day Weather Forecast

Advertisements
Track Severe Weather on mobile